• Join FlightAware (Why Join?)
  • Login
  • US Flag 
03:10AM EST


 

Airport Tracker/Info


-or-


 

Live Flight TrackerFlight Track Log ✈ UAL4660 ✈ 22-Jun-2013 ✈ KDTW - KIAH

Flight Track Log - Related Links

Times and Time Zones

All times are in EDT time to prevent confusion due to time zone crossing. See the UAL4660 flight status page for this flight to view local times or setup timezone preferences in your user account.

Time Position Orientation Groundspeed Altitude Reporting Facility
EDT Latitude Longitude Course Direction KTS MPH feet Rate Location/Type
07:53AM 42.1972 -83.3608 194° South 164 189 1,300  Level Cleveland Center
07:54AM 42.1514 -83.3672 186° South 207 238 2,800 1,897 Climbing Cleveland Center
07:55AM 42.0947 -83.3786 188° South 231 266 5,000 2,016 Climbing Cleveland Center
07:56AM 41.8868 -83.7478 200° South  Level Estimated
07:56AM 42.0231 -83.4092 198° South 252 290 6,900  Level Cleveland Center
07:57AM 41.8051 -83.8458 180° South  Level Estimated
07:57AM 41.9533 -83.4450 201° Southwest 269 310 9,300  Level Cleveland Center
07:58AM 41.7234 -83.9435 194° South  Level Estimated
07:58AM 41.8753 -83.4808 199° South 279 321 10,600  Level Cleveland Center
07:59AM 41.7292 -83.5456 198° South 353 406 13,200 1,455 Climbing Indianapolis Center
08:00AM 41.6328 -83.5831 196° South 356 410 14,600 1,317 Climbing Indianapolis Center
08:01AM 41.5303 -83.6122 192° South 369 425 15,900 1,317 Climbing Indianapolis Center
08:02AM 41.4283 -83.6544 197° South 378 435 17,300 1,308 Climbing Indianapolis Center
08:04AM 41.3014 -83.7425 208° Southwest 379 436 18,800 1,500 Climbing Cleveland Center
08:05AM 41.2117 -83.8128 211° Southwest 384 442 20,600 1,600 Climbing Cleveland Center
08:06AM 41.1225 -83.8744 208° Southwest 378 435 22,000 1,327 Climbing Cleveland Center
08:07AM 41.0439 -83.9306 208° Southwest 367 422 23,100 1,158 Climbing Indianapolis Center
08:08AM 40.9519 -83.9978 209° Southwest 377 434 24,200 1,082 Climbing Indianapolis Center
08:09AM 40.8589 -84.0639 208° Southwest 376 433 25,300 1,122 Climbing Indianapolis Center
08:10AM 40.7647 -84.1322 209° Southwest 383 441 26,500 1,171 Climbing Indianapolis Center
08:11AM 40.6703 -84.1989 208° Southwest 382 440 27,700 1,180 Climbing Indianapolis Center
08:12AM 40.5742 -84.2669 208° Southwest 389 448 28,900 1,073 Climbing Indianapolis Center
08:13AM 40.4783 -84.3356 209° Southwest 390 449 29,900 537 Climbing Indianapolis Center
08:14AM 40.3775 -84.4078 209° Southwest 409 471 30,000 344 Climbing Indianapolis Center
08:15AM 40.2678 -84.4825 207° Southwest 436 502 30,600 878 Climbing Indianapolis Center
08:16AM 40.1597 -84.5583 208° Southwest 437 503 31,800 1,268 Climbing Indianapolis Center
08:17AM 40.0547 -84.6314 208° Southwest 429 494 33,200 1,426 Climbing Indianapolis Center
08:18AM 39.9372 -84.7131 208° Southwest 411 473 34,700 1,220 Climbing Indianapolis Center
08:19AM 39.8367 -84.7811 207° Southwest 404 465 35,700 634 Climbing Indianapolis Center
08:20AM 39.7433 -84.8603 213° Southwest 409 471 36,000 148 Climbing Indianapolis Center
08:21AM 39.6733 -84.9728 231° Southwest 433 498 36,000  Level Indianapolis Center
08:22AM 39.5978 -85.1017 233° Southwest 448 516 36,000  Level Indianapolis Center
08:23AM 39.5175 -85.2347 232° Southwest 465 535 36,000  Level Indianapolis Center
08:24AM 39.4339 -85.3719 232° Southwest 481 554 36,000  Level Indianapolis Center
08:25AM 39.3344 -85.5347 232° Southwest 480 552 36,000  Level Indianapolis Center
08:26AM 39.2514 -85.6703 232° Southwest 479 551 36,000  Level Indianapolis Center
08:27AM 39.1678 -85.8078 232° Southwest 483 556 36,000  Level Indianapolis Center
08:28AM 39.0778 -85.9547 232° Southwest 480 552 36,000  Level Indianapolis Center
08:29AM 39.0008 -86.0789 231° Southwest 482 555 36,000  Level Indianapolis Center
08:30AM 38.9167 -86.2128 231° Southwest 480 552 36,000  Level Indianapolis Center
08:31AM 38.8233 -86.3625 231° Southwest 481 554 36,000  Level Indianapolis Center
08:32AM 38.7392 -86.4958 231° Southwest 480 552 36,000  Level Indianapolis Center
08:33AM 38.6547 -86.6306 231° Southwest 483 556 36,000  Level Indianapolis Center
08:34AM 38.5703 -86.7639 231° Southwest 481 554 36,000  Level Indianapolis Center
08:35AM 38.4861 -86.8967 231° Southwest 481 554 36,000  Level Indianapolis Center
08:36AM 38.3939 -87.0411 231° Southwest 486 559 36,000  Level Indianapolis Center
08:37AM 38.3103 -87.1747 231° Southwest 485 558 36,000  Level Indianapolis Center
08:38AM 38.2203 -87.3136 231° Southwest 483 556 36,000  Level Indianapolis Center
08:39AM 38.1356 -87.4444 231° Southwest 480 552 36,000  Level Indianapolis Center
08:40AM 38.0514 -87.5747 231° Southwest 477 549 36,000  Level Indianapolis Center
08:41AM 37.9661 -87.7039 230° Southwest 477 549 36,000 195 Level Indianapolis Center
08:42AM 37.8814 -87.8319 230° Southwest 473 544 36,400 439 Climbing Indianapolis Center
08:43AM 37.7950 -87.9539 228° Southwest 466 536 36,900 293 Climbing Indianapolis Center
08:44AM 37.7106 -88.0758 229° Southwest 460 529 37,000 49 Climbing Indianapolis Center
08:45AM 37.6267 -88.1983 229° Southwest 459 528 37,000  Level Indianapolis Center
08:46AM 37.5414 -88.3189 228° Southwest 462 532 37,000  Level Indianapolis Center
08:47AM 37.4853 -88.4125 233° Southwest 465 535 37,000  Level Memphis Center
08:48AM 37.4017 -88.5319 229° Southwest 465 535 37,000 -150 Level Memphis Center
08:49AM 37.3158 -88.6514 228° Southwest 465 535 36,700 -400 Descending Memphis Center
08:50AM 37.2281 -88.7706 227° Southwest 465 535 36,200 -350 Descending Memphis Center
08:51AM 37.1461 -88.8892 229° Southwest 465 535 36,000 -100 Descending Memphis Center
08:52AM 37.0600 -89.0078 228° Southwest 465 535 36,000  Level Memphis Center
08:53AM 36.9758 -89.1261 228° Southwest 465 535 36,000  Level Memphis Center
08:54AM 36.8914 -89.2442 228° Southwest 465 535 36,000  Level Memphis Center
08:55AM 36.8050 -89.3619 228° Southwest 465 535 36,000  Level Memphis Center
08:56AM 36.7203 -89.4819 229° Southwest 465 535 36,000  Level Memphis Center
08:57AM 36.6317 -89.6044 228° Southwest 465 535 36,000  Level Memphis Center
08:58AM 36.5447 -89.7217 227° Southwest 465 535 36,000  Level Memphis Center
08:59AM 36.4578 -89.8408 228° Southwest 471 542 36,000 -250 Level Memphis Center
09:00AM 36.3706 -89.9575 227° Southwest 466 536 35,500 -500 Descending Memphis Center
09:01AM 36.2856 -90.0711 227° Southwest 466 536 35,000 -250 Descending Memphis Center
09:02AM 36.1981 -90.1897 228° Southwest 461 531 35,000 -150 Level Memphis Center
09:03AM 36.1128 -90.3031 227° Southwest 461 531 34,700 -400 Descending Memphis Center
09:04AM 36.0253 -90.4161 226° Southwest 461 531 34,200 -350 Descending Memphis Center
09:05AM 35.9417 -90.5314 228° Southwest 461 531 34,000 -100 Descending Memphis Center
09:06AM 35.8558 -90.6464 227° Southwest 461 531 34,000  Level Memphis Center
09:07AM 35.7703 -90.7586 227° Southwest 461 531 34,000  Level Memphis Center
09:08AM 35.6678 -90.8400 213° Southwest 444 511 34,000  Level Memphis Center
09:09AM 35.5506 -90.8981 202° Southwest 444 511 34,000  Level Memphis Center
09:10AM 35.4378 -90.9558 203° Southwest 450 518 34,000  Level Memphis Center
09:11AM 35.3206 -91.0186 204° Southwest 450 518 34,000  Level Memphis Center
09:12AM 35.2078 -91.0764 203° Southwest 450 518 34,000  Level Memphis Center
09:13AM 35.0925 -91.1361 203° Southwest 450 518 34,000  Level Memphis Center
09:14AM 34.9775 -91.1961 203° Southwest 455 524 34,000  Level Memphis Center
09:15AM 34.8622 -91.2556 203° Southwest 455 524 34,000  Level Memphis Center
09:16AM 34.7472 -91.3150 203° Southwest 455 524 34,000  Level Memphis Center
09:17AM 34.6297 -91.3717 202° Southwest 455 524 34,000  Level Memphis Center
09:18AM 34.5250 -91.4233 202° Southwest 455 524 34,000  Level Memphis Center
09:19AM 34.4119 -91.4825 203° Southwest 449 517 34,000  Level Memphis Center
09:20AM 34.2986 -91.5414 203° Southwest 454 522 34,000  Level Memphis Center
09:21AM 34.1833 -91.6000 203° Southwest 454 522 34,000  Level Memphis Center
09:22AM 34.0681 -91.6536 201° Southwest 454 522 34,000  Level Memphis Center
09:24AM 33.8011 -91.7872 203° Southwest 453 521 34,000  Level Fort Worth Center
09:25AM 33.6889 -91.8469 204° Southwest 447 514 34,000  Level Fort Worth Center
09:26AM 33.5725 -91.9017 201° Southwest 447 514 34,000  Level Fort Worth Center
09:27AM 33.4578 -91.9561 202° Southwest 447 514 34,000  Level Fort Worth Center
09:28AM 33.3417 -92.0156 203° Southwest 447 514 34,000  Level Fort Worth Center
09:29AM 33.2292 -92.0697 202° Southwest 447 514 34,000  Level Fort Worth Center
09:30AM 33.1144 -92.1236 201° Southwest 447 514 34,000  Level Fort Worth Center
09:31AM 32.9981 -92.1825 203° Southwest 447 514 34,000  Level Fort Worth Center
09:32AM 32.8833 -92.2361 201° Southwest 452 520 34,000  Level Fort Worth Center
09:33AM 32.7606 -92.2975 203° Southwest 447 514 34,000  Level Fort Worth Center
09:35AM 32.5947 -92.3767 202° Southwest 443 510 34,000  Level Houston Center
09:36AM 32.4803 -92.4331 203° Southwest 444 511 34,000  Level Houston Center
09:37AM 32.3417 -92.4997 202° Southwest 447 514 34,000  Level Houston Center
09:38AM 32.2283 -92.5547 202° Southwest 445 512 34,000  Level Houston Center
09:39AM 32.1122 -92.6128 203° Southwest 450 518 34,000  Level Houston Center
09:40AM 31.9975 -92.6678 202° Southwest 446 513 34,000  Level Houston Center
09:41AM 31.8978 -92.7508 215° Southwest 440 506 34,000  Level Houston Center
09:42AM 31.8028 -92.8450 220° Southwest 444 511 34,000  Level Houston Center
09:43AM 31.7072 -92.9364 219° Southwest 444 511 34,000  Level Houston Center
09:44AM 31.5939 -93.0461 220° Southwest 442 509 34,000  Level Houston Center
09:45AM 31.4975 -93.1375 219° Southwest 445 512 34,000  Level Houston Center
09:46AM 31.4008 -93.2297 219° Southwest 448 516 34,000  Level Houston Center
09:47AM 31.2986 -93.3258 219° Southwest 447 514 34,000 -48 Level Houston Center
09:48AM 31.2069 -93.4133 219° Southwest 452 520 33,900 -927 Descending Houston Center
09:49AM 31.1089 -93.5075 219° Southwest 457 526 32,100 -1,805 Descending Houston Center
09:50AM 31.0100 -93.6003 219° Southwest 457 526 30,200 -2,098 Descending Houston Center
09:51AM 30.8969 -93.7078 219° Southwest 444 511 27,800 -2,098 Descending Houston Center
09:52AM 30.8022 -93.7975 219° Southwest 442 509 25,900 -1,887 Descending Houston Center
09:53AM 30.7025 -93.8917 219° Southwest 460 529 23,900 -1,951 Descending Houston Center
09:54AM 30.6058 -93.9825 219° Southwest 453 521 21,900 -2,136 Descending Houston Center
09:55AM 30.5056 -94.0742 218° Southwest 436 502 19,700 -2,288 Descending Houston Center
09:56AM 30.4211 -94.1750 226° Southwest 418 481 17,400 -2,195 Descending Houston Center
09:57AM 30.3714 -94.2861 243° Southwest 403 464 15,200 -2,063 Descending Houston Center
09:59AM 30.3164 -94.4144 244° Southwest 392 451 13,000 -1,770 Descending Houston Center
10:00AM 30.2706 -94.5219 244° Southwest 375 432 11,600 -1,333 Descending Houston Center
10:01AM 30.2222 -94.6300 243° Southwest 378 435 10,400 -780 Descending Houston Center
10:02AM 30.1778 -94.7372 244° Southwest 366 421 10,000 -244 Descending Houston Center
10:03AM 30.1364 -94.8319 243° Southwest 293 337 9,900 -738 Descending Houston Center
10:04AM 30.1053 -94.9228 248° West 292 336 8,500 -1,180 Descending Houston Center
10:05AM 30.1056 -95.0144 270° West 282 325 7,500 -974 Descending Houston Center
10:06AM 30.1047 -95.0967 269° West 285 328 6,600 -769 Descending Houston Center
10:07AM 30.1047 -95.1861 270° West 276 318 6,000 -295 Descending Houston Center
10:08AM 30.1064 -95.2731 271° West 275 316 6,000 -131 Level Houston Center
10:09AM 30.1067 -95.3764 270° West 277 319 5,700 -738 Descending Houston Center
10:10AM 30.1064 -95.4564 270° West 270 311 4,500 -1,458 Descending Houston Center
10:11AM 30.0950 -95.5400 261° West 266 306 3,100 -738 Descending Houston Center
10:12AM 30.0367 -95.5686 203° Southwest 198 228 3,000 -86 Descending Houston Center
10:13AM 29.9953 -95.5217 136° Southeast 209 241 2,900 -76 Descending Houston Center